METAR Data
IDs: Format: Raw Decoded Include TAF

Data at: 0859 UTC 23 Sep 2018

KLLQ 230853Z AUTO 00000KT 1SM BR VV002 20/20 A2996 RMK AO2 SLP143 T02000200 55008
KLLQ 230830Z AUTO 00000KT 1 1/4SM BR OVC002 21/20 A2997 RMK AO2 T02060200
KLLQ 230753Z AUTO 06004KT 3/4SM BR VV002 20/20 A2996 RMK AO2 SLP143 T02000200
KLLQ 230736Z AUTO 00000KT 1 1/4SM BR OVC002 21/20 A2997 RMK AO2 T02060200
KLLQ 230727Z AUTO 00000KT 2SM BR OVC002 21/20 A2997 RMK AO2 T02060200
KLLQ 230653Z AUTO 00000KT 4SM BR OVC002 21/20 A2997 RMK AO2 SLP147 T02060200
KLLQ 230553Z AUTO 05004KT 9SM OVC003 21/20 A2999 RMK AO2 RAB0456E11 SLP152 P0001 60003 T02060200 10206 20194 402390194 57008
KLLQ 230453Z AUTO 07006KT 10SM OVC003 20/19 A2999 RMK AO2 SLP154 T02000194
KLLQ 230353Z AUTO 06006KT 9SM OVC003 20/19 A3000 RMK AO2 RAE0255 SLP156 P0000 T02000194
KLLQ 230253Z AUTO 05006KT 10SM -RA OVC004 20/19 A3001 RMK AO2 RAE01B43 SLP159 P0001 60002 T02000194 53006
KLLQ 230153Z AUTO 04005KT 10SM -RA OVC004 20/19 A3001 RMK AO2 RAB47 SLP159 P0000 T02000189
KLLQ 230053Z AUTO VRB06KT 10SM OVC004 19/19 A2999 RMK AO2 RAE28 SLP152 P0001 T01940189
KLLQ 222353Z AUTO 03006KT 10SM -RA OVC004 19/19 A2999 RMK AO2 RAB24 SLP153 P0001 60022 T01940189 10211 20194 55001
KLLQ 222253Z AUTO 02005KT 9SM OVC004 20/19 A2998 RMK AO2 RAB17E50 SLP150 P0001 T02000194
KLLQ 222153Z AUTO VRB05KT 10SM OVC004 21/20 A3000 RMK AO2 RAB01E40 SLP155 P0001 T02060200
KLLQ 222132Z AUTO 01005KT 9SM -RA OVC004 21/20 A3000 RMK AO2 RAB01 P0001 T02060200
KLLQ 222053Z AUTO VRB04KT 10SM OVC005 21/20 A2999 RMK AO2 RAE49 SLP154 P0004 60019 T02060200 55013
KLLQ 222022Z AUTO VRB05KT 8SM -RA BKN004 BKN050 OVC090 21/20 A2999 RMK AO2 P0003 T02060200
KLLQ 221951Z AUTO 01004KT 3SM RA BR FEW004 BKN060 OVC080 21/20 A2999 RMK AO2 RAB09 SLP154 P0015 T02060200
KLLQ 221950Z AUTO VRB03KT 3SM RA BR FEW004 BKN060 OVC080 21/20 A2999 RMK AO2 RAB09 P0014
KLLQ 221929Z AUTO 35005KT 3SM -RA BR BKN004 OVC009 21/20 A3001 RMK AO2 RAB09 P0008 T02110200
KLLQ 221921Z AUTO VRB03KT 2 1/2SM -RA BR OVC004 21/20 A3002 RMK AO2 RAB09 CIG 003V008 P0006 T02060200
KLLQ 221853Z AUTO VRB03KT 8SM OVC004 21/20 A3002 RMK AO2 SLP163 T02110200
KLLQ 221753Z AUTO VRB03KT 4SM BR OVC003 21/21 A3003 RMK AO2 LTG DSNT S RAE1654 SLP168 P0000 60009 T02110206 10239 20211 58006
KLLQ 221653Z AUTO VRB04KT 5SM -RA BR OVC002 21/21 A3005 RMK AO2 RAB16E26B39 SLP174 P0003 T02110206
KLLQ 221630Z AUTO VRB04KT 5SM BR OVC002 21/21 A3005 RMK AO2 RAB16E26 P0002 T02110206
KLLQ 221621Z AUTO 01004KT 2 1/2SM -RA BR OVC002 21/21 A3006 RMK AO2 RAB16 P0002 T02110206
KLLQ 221553Z AUTO VRB03KT 4SM BR OVC003 21/21 A3006 RMK AO2 SLP177 T02110206
KLLQ 221527Z AUTO 04007KT 9SM OVC004 21/21 A3006 RMK AO2 T02110206
KLLQ 221510Z AUTO 04006KT 10SM OVC005 21/21 A3005 RMK AO2 T02110206
KLLQ 221453Z AUTO VRB05KT 10SM OVC004 21/21 A3005 RMK AO2 SLP173 60006 T02110206 53011
KLLQ 221419Z AUTO 06006KT 7SM OVC004 24/23 A3004 RMK AO2 T02390233
KLLQ 221353Z AUTO 06006KT 8SM BKN005 OVC010 24/23 A3004 RMK AO2 RAB36E53 SLP167 P0006 T02390233
KLLQ 221350Z AUTO 06006KT 5SM -RA BR BKN005 OVC010 24/23 A3004 RMK AO2 RAB36 P0006
KLLQ 221344Z AUTO 05006KT 2SM -RA BR BKN003 OVC010 24/23 A3003 RMK AO2 RAB36 P0006 T02390233
KLLQ 221253Z AUTO 05007KT 6SM BR OVC003 23/23 A3003 RMK AO2 SLP165 T02330228
KLLQ 221203Z AUTO 04005KT 9SM OVC004 23/23 A3002 RMK AO2 T02330228
KLLQ 221153Z AUTO 04007KT 9SM OVC005 23/22 A3002 RMK AO2 SLP161 70066 T02330222 10233 20233 55000
KLLQ 221053Z AUTO 06005KT 10SM OVC005 23/23 A3002 RMK AO2 SLP160 T02330228
KLLQ 220953Z AUTO 03004KT 10SM OVC005 23/22 A3001 RMK AO2 SLP158 T02330222
KLLQ 220853Z AUTO 00000KT 10SM OVC005 23/22 A3002 RMK AO2 SLP161 T02330222 55002
KLLQ 220811Z AUTO 00000KT 10SM OVC005 23/23 A3001 RMK AO2 T02330228
KLLQ 220753Z AUTO VRB03KT 10SM OVC004 23/23 A3002 RMK AO2 SLP161 T02330228
KLLQ 220717Z AUTO 04005KT 10SM OVC004 23/23 A3002 RMK AO2 T02330228
KLLQ 220653Z AUTO 03005KT 10SM OVC005 23/23 A3002 RMK AO2 SLP163 T02330228
KLLQ 220651Z AUTO 04005KT 10SM OVC005 23/23 A3003 RMK AO2
KLLQ 220553Z AUTO VRB03KT 10SM BKN004 23/23 A3004 RMK AO2 RAE22 SLP169 P0002 60066 T02330228 10306 20233 403440228 58003
KLLQ 220523Z AUTO 02004KT 10SM BKN004 BKN050 BKN090 24/23 A3005 RMK AO2 LTG DSNT NW RAE22 P0001 T02390228
KLLQ 220500Z AUTO 34004KT 10SM -RA SCT007 SCT095 BKN110 24/23 A3005 RMK AO2 P0001 T02390233
KLLQ 220453Z AUTO 31006KT 9SM -RA SCT005 BKN019 OVC110 24/23 A3005 RMK AO2 LTG DSNT NE RAE0355B37 SLP174 P0002 T02390233
KLLQ 220437Z AUTO 29003KT 9SM -RA SCT007 BKN023 OVC100 24/23 A3006 RMK AO2 LTG DSNT NE RAE0355B37 P0000 T02390233
KLLQ 220353Z AUTO 34003KT 10SM -RA FEW040 BKN100 OVC120 24/23 A3004 RMK AO2 LTG DSNT N AND NE TSB09E24 SLP168 P0051 T02390233
KLLQ 220345Z AUTO VRB03KT 6SM VCTS -RA BR SCT042 BKN060 OVC095 24/23 A3004 RMK AO2 LTG DSNT N AND NE TSB09E24 P0051 T02390233
KLLQ 220333Z AUTO 28003KT 2 1/2SM VCTS +RA BR BKN039 BKN050 OVC065 24/23 A3005 RMK AO2 LTG DSNT N TSB09E24 P0049 T02440233
KLLQ 220327Z AUTO 31007KT 4SM RA BR BKN038 BKN050 OVC065 24/23 A3005 RMK AO2 LTG DSNT N AND NW TSB09E24 P0043 T02390233
KLLQ 220319Z AUTO 31009KT 4SM TSRA BR SCT029 BKN039 OVC048 24/23 A3005 RMK AO2 LTG DSNT N AND NW TSB09 P0039 T02390233
KLLQ 220311Z AUTO 29007G17KT 2SM TSRA BR SCT026 BKN041 OVC050 24/23 A3005 RMK AO2 LTG DSNT N AND NW TSB09 P0035 T02390233
KLLQ 220303Z AUTO 28010G22KT 1 1/4SM VCTS +RA BR SCT024 BKN040 OVC055 24/23 A3005 RMK AO2 LTG DSNT N AND NW P0030 T02440233
KLLQ 220256Z AUTO 28015G22KT 2SM VCTS +RA BR SCT026 OVC055 25/24 A3005 RMK AO2 LTG DSNT N AND NW P0007 T02500239
KLLQ 220253Z AUTO 27011G16KT 3SM +RA BR FEW028 OVC055 25/24 A3005 RMK AO2 LTG DSNT SW AND NW RAB23 SLP172 P0011 60011 T02500239 53026
KLLQ 220153Z AUTO 07004KT 10SM CLR 28/23 A3000 RMK AO2 LTG DSNT W AND NW SLP156 T02780228
KLLQ 220053Z AUTO 08004KT 10SM CLR 28/23 A2997 RMK AO2 SLP145 T02830228
KLLQ 212353Z AUTO 09003KT 10SM CLR 31/23 A2997 RMK AO2 SLP145 T03060233 10344 20306 53006
KLLQ 212253Z AUTO 08005KT 10SM CLR 32/23 A2996 RMK AO2 SLP143 T03220233
KLLQ 212153Z AUTO 13007KT 10SM BKN060 33/22 A2996 RMK AO2 SLP141 T03330222